Licenciado Adolfo Lopez Mateos International Airport
MMTO : now visible

Airfield :











YOU CAN JOIN US ON...

 
LOGIN :

Register | Disclaimer

   EN    FR    IT 

 









Legend :    VFR   Marginal VFR   IFR   Intensive IFR   Very Intensive IFR
Visi :
Ceiling :
>= 8 km
>= 3000ft
5 to 8 km
1000 to 3000 ft
1500m to 5 km
500 to 1000 ft
800 to 1500m
200 to 500 ft
< 800m
< 200 ft
Symbols :   Thunderstorms  Fog  Heavy snow  Heavy precipitations  Wind > 20 kt






- Airport Elevation : 8466 ft
- IATA code : TLC


MMTO - Licenciado Adolfo Lopez Mateos International

CURRENT METAR :
  • 222248Z 15011KT 4SM FEW010 SCT015 OVC070 18/12 A3033 RMK 8/46/ HZY

EXPIRED METARs :
  • 222151Z 16010KT 5SM SCT015 OVC070 19/12 A3033 RMK 8/46/ HZY
  • 222049Z 14009KT 5SM TS SCT015CB BKN070 OVC200 17/14 A3034 RMK SLP057 57035 969 60395 8/963 HZY BINOVC

TAF TAF MMTO
Valid from the 23 at 00:00 until the 24 at 06:00 UTC


222302Z 2300/2406 15010KT 4SM HZ SCT010 SCT015 OVC070 TX25/2320Z TN10/2312Z
TEMPO 2300/2304 5SM TSRA BKN015CB
FM230400 19005KT 5SM -RA BKN015 OVC070
BECMG 2308/2309 3SM BR HZ
FM231600 23005KT P6SM SCT015 BKN250
FM232000 24010KT P6SM SCT015CB BKN250
TEMPO 2321/2401 4SM TSRA BKN015CB
FM240100 29005KT 5SM -RA BKN015CB OVC080
MMFR FIR / North America



MET'MAP, your aeronautical weather chart ! - Copyright ORBIFLY December 2007 - Disclaimer

ORBIFLY MET'MAP TEAM :

Programming & Development : Alexandra Zaïnal
Concept & original design : Baudouin d'Aumeries
Assistance for programming : Marc-Olivier Méhu
Technical & hardware support : Manuel Goepfert

Contact : metmap@orbifly.com




SOURCES & CREDITS :

   NOAA       Earth
Advisory